createdAt,value
2023-11-30T00:01:44.800Z,100308.83
2023-11-30T00:04:13.297Z,100304.38
2023-11-30T00:06:41.708Z,100299.05
2023-11-30T00:09:10.009Z,100301.52
2023-11-30T00:11:38.328Z,100298.33
2023-11-30T00:14:06.560Z,100299.95
2023-11-30T00:16:35.094Z,100309.23
2023-11-30T00:19:03.668Z,100305.86
2023-11-30T00:21:32.272Z,100304.45
2023-11-30T00:24:00.645Z,100301.05
2023-11-30T00:26:28.995Z,100296.98
2023-11-30T00:28:57.571Z,100297.67
2023-11-30T00:31:29.531Z,100292.86
2023-11-30T00:33:58.076Z,100287.16
2023-11-30T00:36:26.398Z,100278.61
2023-11-30T00:38:54.665Z,100277.36
2023-11-30T00:41:23.116Z,100276.51
2023-11-30T00:43:51.413Z,100278.64
2023-11-30T00:46:19.821Z,100271.35
2023-11-30T00:48:48.401Z,100273.51
2023-11-30T00:51:17.281Z,100268.52
2023-11-30T00:53:45.509Z,100271.38
2023-11-30T00:56:13.995Z,100270.67
2023-11-30T00:58:42.230Z,100272.60
2023-11-30T01:03:43.772Z,100263.35
2023-11-30T01:06:12.259Z,100261.56
2023-11-30T01:08:40.965Z,100267.81
2023-11-30T01:11:09.759Z,100259.98
2023-11-30T01:13:37.913Z,100260.36
2023-11-30T01:16:06.727Z,100262.86
2023-11-30T01:18:35.094Z,100258.77
2023-11-30T01:21:03.843Z,100262.14
2023-11-30T01:23:32.125Z,100262.14
2023-11-30T01:26:01.398Z,100263.91
2023-11-30T01:28:29.769Z,100255.92
2023-11-30T01:30:58.171Z,100255.58
2023-11-30T01:33:26.609Z,100257.53
2023-11-30T01:35:54.888Z,100260.91
2023-11-30T01:38:23.304Z,100264.65
2023-11-30T01:40:51.491Z,100264.45
2023-11-30T01:43:22.251Z,100265.34
2023-11-30T01:46:02.331Z,100273.87
2023-11-30T01:48:34.145Z,100273.69
2023-11-30T01:51:06.051Z,100276.70
2023-11-30T01:53:37.084Z,100278.45
2023-11-30T01:56:10.561Z,100276.84
2023-11-30T01:58:39.106Z,100274.88
2023-11-30T02:01:09.055Z,100272.90
2023-11-30T02:03:38.579Z,100272.19
2023-11-30T02:06:07.876Z,100277.35
2023-11-30T02:08:36.250Z,100278.05
2023-11-30T02:11:04.709Z,100278.75
2023-11-30T02:13:32.948Z,100274.82
2023-11-30T02:16:01.475Z,100275.16
2023-11-30T02:18:29.781Z,100276.21
2023-11-30T02:20:58.305Z,100275.11
2023-11-30T02:23:26.584Z,100270.30
2023-11-30T02:25:55.066Z,100266.55
2023-11-30T02:28:23.199Z,100264.59
2023-11-30T02:30:51.598Z,100268.16
2023-11-30T02:33:20.151Z,100270.85
2023-11-30T02:35:48.459Z,100274.42
2023-11-30T02:38:17.193Z,100279.44
2023-11-30T02:40:45.482Z,100275.36
2023-11-30T02:43:13.755Z,100272.90
2023-11-30T02:45:42.077Z,100277.36
2023-11-30T02:48:11.112Z,100272.73
2023-11-30T02:50:39.993Z,100271.34
2023-11-30T02:53:08.183Z,100263.17
2023-11-30T02:55:36.745Z,100267.62
2023-11-30T02:58:05.019Z,100264.05
2023-11-30T03:00:33.365Z,100256.91
2023-11-30T03:03:01.794Z,100255.30
2023-11-30T03:05:32.278Z,100247.47
2023-11-30T03:08:00.518Z,100244.09
2023-11-30T03:10:28.856Z,100243.19
2023-11-30T03:12:57.889Z,100240.35
2023-11-30T03:15:26.167Z,100236.80
2023-11-30T03:17:54.728Z,100237.30
2023-11-30T03:20:23.243Z,100231.77
2023-11-30T03:22:51.592Z,100232.46
2023-11-30T03:25:20.127Z,100231.74
2023-11-30T03:27:48.418Z,100228.36
2023-11-30T03:30:16.822Z,100228.01
2023-11-30T03:32:45.694Z,100224.64
2023-11-30T03:35:13.995Z,100220.02
2023-11-30T03:37:42.307Z,100218.04
2023-11-30T03:40:11.673Z,100218.25
2023-11-30T03:42:39.959Z,100218.98
2023-11-30T03:45:08.916Z,100220.75
2023-11-30T03:47:37.617Z,100217.55
2023-11-30T03:50:06.156Z,100217.72
2023-11-30T03:52:34.995Z,100216.48
2023-11-30T03:55:03.560Z,100216.65
2023-11-30T03:57:32.206Z,100221.63
2023-11-30T04:00:00.683Z,100224.13
2023-11-30T04:02:30.002Z,100223.60
2023-11-30T04:04:59.538Z,100223.41
2023-11-30T04:07:27.790Z,100222.70
2023-11-30T04:09:56.201Z,100221.63
2023-11-30T04:12:24.645Z,100224.30
2023-11-30T04:14:53.013Z,100221.45
2023-11-30T04:17:22.239Z,100225.20
2023-11-30T04:19:50.821Z,100216.48
2023-11-30T04:22:19.047Z,100215.77
2023-11-30T04:24:47.776Z,100213.82
2023-11-30T04:27:16.198Z,100215.23
2023-11-30T04:29:44.501Z,100214.55
2023-11-30T04:32:13.003Z,100218.99
2023-11-30T04:34:41.237Z,100222.22
2023-11-30T04:37:09.441Z,100222.23
2023-11-30T04:39:38.035Z,100224.56
2023-11-30T04:42:06.534Z,100225.80
2023-11-30T04:44:34.731Z,100223.32
2023-11-30T04:47:03.046Z,100220.30
2023-11-30T04:49:31.272Z,100223.31
2023-11-30T04:51:59.831Z,100222.96
2023-11-30T04:54:28.439Z,100227.08
2023-11-30T04:56:57.645Z,100227.08
2023-11-30T04:59:25.873Z,100226.39
2023-11-30T05:01:54.403Z,100220.52
2023-11-30T05:04:23.563Z,100217.69
2023-11-30T05:06:51.809Z,100217.33
2023-11-30T05:09:20.068Z,100214.30
2023-11-30T05:11:48.377Z,100220.36
2023-11-30T05:14:16.551Z,100219.46
2023-11-30T05:16:45.480Z,100217.17
2023-11-30T05:19:13.666Z,100216.81
2023-11-30T05:21:42.080Z,100214.50
2023-11-30T05:24:11.979Z,100213.98
2023-11-30T05:26:40.481Z,100220.73
2023-11-30T05:29:08.815Z,100219.14
2023-11-30T05:31:37.163Z,100227.16
2023-11-30T05:34:05.444Z,100232.85
2023-11-30T05:36:34.273Z,100232.34
2023-11-30T05:39:03.149Z,100228.77
2023-11-30T05:41:32.133Z,100219.71
2023-11-30T05:44:00.596Z,100216.53
2023-11-30T05:46:28.955Z,100218.48
2023-11-30T05:48:57.252Z,100215.30
2023-11-30T05:51:25.543Z,100217.80
2023-11-30T05:53:54.208Z,100211.93
2023-11-30T05:56:22.917Z,100211.23
2023-11-30T05:58:51.075Z,100216.37
2023-11-30T06:01:19.409Z,100220.45
2023-11-30T06:03:47.940Z,100217.23
2023-11-30T06:06:16.480Z,100217.75
2023-11-30T06:08:44.726Z,100225.04
2023-11-30T06:11:12.864Z,100224.51
2023-11-30T06:13:41.197Z,100216.34
2023-11-30T06:16:09.724Z,100217.41
2023-11-30T06:18:38.326Z,100214.40
2023-11-30T06:21:10.770Z,100212.80
2023-11-30T06:23:39.199Z,100212.63
2023-11-30T06:26:10.512Z,100209.08
2023-11-30T06:28:38.852Z,100204.48
2023-11-30T06:31:08.488Z,100205.20
2023-11-30T06:33:36.876Z,100203.41
2023-11-30T06:36:05.784Z,100201.79
2023-11-30T06:38:34.304Z,100204.13
2023-11-30T06:41:02.665Z,100202.17
2023-11-30T06:43:31.011Z,100201.46
2023-11-30T06:45:59.265Z,100192.95
2023-11-30T06:48:27.681Z,100182.98
2023-11-30T06:50:56.166Z,100174.11
2023-11-30T06:53:24.667Z,100185.11
2023-11-30T06:55:53.386Z,100196.32
2023-11-30T06:58:21.567Z,100206.27
2023-11-30T07:00:49.843Z,100200.75
2023-11-30T07:03:18.409Z,100199.68
2023-11-30T07:05:48.429Z,100196.47
2023-11-30T07:08:16.834Z,100192.75
2023-11-30T07:10:45.232Z,100193.27
2023-11-30T07:13:13.629Z,100199.67
2023-11-30T07:15:42.250Z,100205.91
2023-11-30T07:18:11.736Z,100213.38
2023-11-30T07:20:40.059Z,100211.58
2023-11-30T07:23:09.480Z,100212.28
2023-11-30T07:25:38.589Z,100215.46
2023-11-30T07:28:06.659Z,100221.13
2023-11-30T07:30:34.980Z,100226.27
2023-11-30T07:33:03.448Z,100223.91
2023-11-30T07:35:32.216Z,100224.11
2023-11-30T07:38:00.530Z,100220.84
2023-11-30T07:40:30.005Z,100220.59
2023-11-30T07:42:58.578Z,100215.91
2023-11-30T07:45:27.387Z,100210.88
2023-11-30T07:47:56.132Z,100216.83
2023-11-30T07:50:25.003Z,100222.92
2023-11-30T07:52:53.361Z,100228.70
2023-11-30T07:55:22.992Z,100235.66
2023-11-30T07:57:51.319Z,100239.14
2023-11-30T08:00:20.110Z,100239.41
2023-11-30T08:02:48.544Z,100241.22
2023-11-30T08:05:17.897Z,100237.54
2023-11-30T08:07:46.194Z,100235.46
2023-11-30T08:10:14.365Z,100228.81
2023-11-30T08:12:43.502Z,100226.05
2023-11-30T08:15:14.396Z,100229.86
2023-11-30T08:17:42.810Z,100233.59
2023-11-30T08:20:12.295Z,100238.95
2023-11-30T08:22:41.792Z,100240.55
2023-11-30T08:25:10.180Z,100242.13
2023-11-30T08:27:39.293Z,100245.18
2023-11-30T08:30:08.141Z,100238.05
2023-11-30T08:32:37.516Z,100240.69
2023-11-30T08:35:06.717Z,100248.41
2023-11-30T08:37:35.059Z,100258.33
2023-11-30T08:40:03.552Z,100253.67
2023-11-30T08:42:31.944Z,100260.61
2023-11-30T08:45:00.471Z,100265.25
2023-11-30T08:47:28.684Z,100265.56
2023-11-30T08:49:56.989Z,100272.25
2023-11-30T08:52:25.462Z,100271.59
2023-11-30T08:54:54.293Z,100278.40
2023-11-30T08:57:22.740Z,100278.88
2023-11-30T08:59:51.345Z,100283.27
2023-11-30T09:02:19.713Z,100282.14
2023-11-30T09:04:50.242Z,100277.29
2023-11-30T09:07:19.684Z,100275.46
2023-11-30T09:09:51.248Z,100280.52
2023-11-30T09:12:20.144Z,100279.50
2023-11-30T09:14:48.313Z,100277.73
2023-11-30T09:17:16.731Z,100271.47
2023-11-30T09:19:44.948Z,100271.67
2023-11-30T09:22:13.299Z,100275.64
2023-11-30T09:24:41.647Z,100264.83
2023-11-30T09:27:10.278Z,100269.70
2023-11-30T09:29:40.713Z,100278.75
2023-11-30T09:32:08.998Z,100278.13
2023-11-30T09:34:37.766Z,100283.42
2023-11-30T09:37:06.832Z,100284.85
2023-11-30T09:39:35.071Z,100289.70
2023-11-30T09:42:03.774Z,100289.11
2023-11-30T09:44:36.410Z,100289.39
2023-11-30T09:47:05.019Z,100289.85
2023-11-30T09:49:33.156Z,100282.52
2023-11-30T09:52:02.738Z,100284.45
2023-11-30T09:54:32.508Z,100278.92
2023-11-30T09:57:00.931Z,100269.45
2023-11-30T09:59:29.902Z,100263.90
2023-11-30T10:02:04.523Z,100272.08
2023-11-30T10:04:35.166Z,100268.77
2023-11-30T10:07:03.687Z,100267.95
2023-11-30T10:09:34.392Z,100261.61
2023-11-30T10:12:02.944Z,100262.11
2023-11-30T10:14:31.359Z,100257.11
2023-11-30T10:17:01.181Z,100264.20
2023-11-30T10:19:30.219Z,100267.23
2023-11-30T10:21:59.812Z,100261.48
2023-11-30T10:24:28.777Z,100260.04
2023-11-30T10:27:05.795Z,100256.73
2023-11-30T10:29:41.534Z,100251.41
2023-11-30T10:32:14.776Z,100249.72
2023-11-30T10:34:50.861Z,100250.00
2023-11-30T10:37:21.119Z,100248.93
2023-11-30T10:40:00.805Z,100248.52
2023-11-30T10:42:29.799Z,100247.47
2023-11-30T10:45:02.718Z,100237.20
2023-11-30T10:47:31.517Z,100238.30
2023-11-30T10:50:01.454Z,100231.20
2023-11-30T10:52:30.730Z,100230.48
2023-11-30T10:55:17.169Z,100222.88
2023-11-30T10:57:46.492Z,100215.90
2023-11-30T11:00:17.030Z,100200.15
2023-11-30T11:02:47.279Z,100190.46
2023-11-30T11:05:20.185Z,100188.72
2023-11-30T11:07:53.279Z,100188.65
2023-11-30T11:10:42.063Z,100183.42
2023-11-30T11:13:19.086Z,100183.91
2023-11-30T11:15:57.851Z,100184.42
2023-11-30T11:18:34.414Z,100177.81
2023-11-30T11:21:02.869Z,100174.73
2023-11-30T11:23:35.383Z,100174.17
2023-11-30T11:26:03.950Z,100166.30
2023-11-30T11:28:32.898Z,100160.05
2023-11-30T11:31:01.801Z,100156.96
2023-11-30T11:33:30.946Z,100157.89
2023-11-30T11:36:02.321Z,100149.65
2023-11-30T11:38:30.928Z,100135.81
2023-11-30T11:40:59.700Z,100133.52
2023-11-30T11:43:28.317Z,100137.27
2023-11-30T11:45:56.645Z,100134.16
2023-11-30T11:48:24.959Z,100129.19
2023-11-30T11:50:58.385Z,100119.79
2023-11-30T11:53:26.573Z,100117.08
2023-11-30T11:56:02.911Z,100109.23
2023-11-30T11:58:31.381Z,100103.66
2023-11-30T12:00:59.734Z,100097.92
2023-11-30T12:03:30.141Z,100095.20
2023-11-30T12:05:58.568Z,100088.61
2023-11-30T12:08:31.955Z,100088.40
2023-11-30T12:11:00.228Z,100083.71
2023-11-30T12:13:28.849Z,100072.73
2023-11-30T12:15:57.458Z,100072.61
2023-11-30T12:18:28.693Z,100062.89
2023-11-30T12:20:57.192Z,100056.93
2023-11-30T12:23:25.438Z,100055.60
2023-11-30T12:25:53.897Z,100051.34
2023-11-30T12:28:23.136Z,100046.58
2023-11-30T12:30:51.519Z,100037.72
2023-11-30T12:33:20.103Z,100028.73
2023-11-30T12:35:48.753Z,100028.25
2023-11-30T12:38:17.161Z,100019.63
2023-11-30T12:40:45.700Z,100007.20
2023-11-30T12:43:14.343Z,99999.96
2023-11-30T12:45:42.686Z,99992.36
2023-11-30T12:48:11.092Z,99988.58
2023-11-30T12:50:39.905Z,99985.96
2023-11-30T12:53:08.437Z,99978.10
2023-11-30T12:55:36.878Z,99971.84
2023-11-30T12:58:09.540Z,99965.52
2023-11-30T13:00:38.454Z,99967.13
2023-11-30T13:03:07.167Z,99967.42
2023-11-30T13:05:35.602Z,99969.09
2023-11-30T13:08:03.956Z,99972.63
2023-11-30T13:10:32.749Z,99966.56
2023-11-30T13:13:01.576Z,99962.70
2023-11-30T13:18:18.308Z,99948.19
2023-11-30T13:20:47.276Z,99942.34
2023-11-30T13:23:15.722Z,99940.00
2023-11-30T13:25:44.327Z,99936.89
2023-11-30T13:28:12.759Z,99929.64
2023-11-30T13:30:41.232Z,99923.77
2023-11-30T13:33:10.016Z,99924.45
2023-11-30T13:35:38.433Z,99924.14
2023-11-30T13:38:07.360Z,99924.70
2023-11-30T13:40:36.253Z,99920.63
2023-11-30T13:43:06.077Z,99918.52
2023-11-30T13:45:36.617Z,99916.84
2023-11-30T13:48:05.109Z,99918.02
2023-11-30T13:50:41.977Z,99910.14
2023-11-30T13:53:15.569Z,99899.50
2023-11-30T13:55:44.360Z,99898.09
2023-11-30T13:58:12.547Z,99896.07
2023-11-30T14:00:41.165Z,99898.46
2023-11-30T14:03:09.529Z,99905.77
2023-11-30T14:05:37.760Z,99901.86
2023-11-30T14:08:07.498Z,99895.85
2023-11-30T14:10:35.758Z,99890.58
2023-11-30T14:13:05.792Z,99900.59
2023-11-30T14:15:34.382Z,99890.30
2023-11-30T14:18:03.641Z,99896.89
2023-11-30T14:20:31.972Z,99898.13
2023-11-30T14:23:00.271Z,99897.40
2023-11-30T14:25:28.736Z,99900.96
2023-11-30T14:28:00.965Z,99898.56
2023-11-30T14:30:32.044Z,99893.94
2023-11-30T14:33:00.836Z,99897.29
2023-11-30T14:35:30.643Z,99904.11
2023-11-30T14:37:59.298Z,99908.58
2023-11-30T14:40:28.088Z,99915.97
2023-11-30T14:42:57.233Z,99909.48
2023-11-30T14:45:26.476Z,99906.08
2023-11-30T14:47:55.146Z,99915.80
2023-11-30T14:50:23.875Z,99912.27
2023-11-30T14:52:52.230Z,99918.70
2023-11-30T14:55:22.701Z,99916.33
2023-11-30T14:57:53.815Z,99915.52
2023-11-30T15:00:24.212Z,99914.48
2023-11-30T15:02:55.578Z,99913.48
2023-11-30T15:05:23.960Z,99924.06
2023-11-30T15:07:52.047Z,99929.73
2023-11-30T15:10:20.462Z,99931.95
2023-11-30T15:12:51.311Z,99931.34
2023-11-30T15:15:19.930Z,99931.60
2023-11-30T15:17:48.575Z,99923.73
2023-11-30T15:20:18.293Z,99921.57
2023-11-30T15:22:47.951Z,99917.70
2023-11-30T15:25:16.225Z,99921.06
2023-11-30T15:27:44.578Z,99920.71
2023-11-30T15:30:14.480Z,99923.88
2023-11-30T15:32:42.791Z,99923.93
2023-11-30T15:35:11.570Z,99922.54
2023-11-30T15:37:40.018Z,99915.19
2023-11-30T15:40:09.906Z,99909.02
2023-11-30T15:42:38.649Z,99914.41
2023-11-30T15:45:11.544Z,99919.64
2023-11-30T15:47:41.911Z,99916.44
2023-11-30T15:50:10.686Z,99915.14
2023-11-30T15:52:39.108Z,99913.70
2023-11-30T15:55:07.907Z,99915.14
2023-11-30T15:57:36.440Z,99916.20
2023-11-30T16:00:06.236Z,99907.07
2023-11-30T16:02:34.900Z,99913.35
2023-11-30T16:05:04.074Z,99918.45
2023-11-30T16:07:33.088Z,99923.84
2023-11-30T16:10:03.877Z,99914.77
2023-11-30T16:12:33.403Z,99901.70
2023-11-30T16:15:04.657Z,99897.89
2023-11-30T16:17:34.599Z,99899.59
2023-11-30T16:20:04.360Z,99897.34
2023-11-30T16:22:33.213Z,99885.98
2023-11-30T16:25:01.855Z,99881.86
2023-11-30T16:27:30.291Z,99887.59
2023-11-30T16:29:59.583Z,99885.96
2023-11-30T16:32:28.008Z,99887.44
2023-11-30T16:34:56.282Z,99886.00
2023-11-30T16:37:24.648Z,99877.79
2023-11-30T16:39:52.952Z,99866.67
2023-11-30T16:42:21.962Z,99868.95
2023-11-30T16:44:51.303Z,99874.43
2023-11-30T16:47:20.113Z,99868.73
2023-11-30T16:49:48.429Z,99861.23
2023-11-30T16:52:16.977Z,99861.15
2023-11-30T16:54:45.231Z,99871.27
2023-11-30T16:57:13.438Z,99874.11
2023-11-30T16:59:42.198Z,99876.80
2023-11-30T17:02:10.488Z,99882.12
2023-11-30T17:04:39.144Z,99878.55
2023-11-30T17:07:07.729Z,99884.98
2023-11-30T17:09:35.989Z,99891.07
2023-11-30T17:12:04.589Z,99887.33
2023-11-30T17:14:33.010Z,99877.65
2023-11-30T17:17:01.263Z,99871.73
2023-11-30T17:19:29.532Z,99873.85
2023-11-30T17:21:57.727Z,99882.59
2023-11-30T17:24:26.060Z,99880.82
2023-11-30T17:26:54.391Z,99869.96
2023-11-30T17:29:22.783Z,99861.73
2023-11-30T17:31:51.018Z,99874.58
2023-11-30T17:34:19.754Z,99871.36
2023-11-30T17:36:48.721Z,99877.28
2023-11-30T17:39:17.371Z,99880.50
2023-11-30T17:41:46.130Z,99881.26
2023-11-30T17:44:15.065Z,99886.64
2023-11-30T17:46:45.432Z,99883.63
2023-11-30T17:49:13.557Z,99874.58
2023-11-30T17:51:42.462Z,99863.45
2023-11-30T17:54:10.784Z,99866.11
2023-11-30T17:56:39.073Z,99868.20
2023-11-30T17:59:07.395Z,99861.98
2023-11-30T18:01:36.710Z,99853.12
2023-11-30T18:04:05.117Z,99851.55
2023-11-30T18:06:33.552Z,99856.38
2023-11-30T18:09:02.411Z,99863.45
2023-11-30T18:11:30.915Z,99861.96
2023-11-30T18:13:59.422Z,99856.64
2023-11-30T18:16:27.796Z,99861.86
2023-11-30T18:18:56.714Z,99874.64
2023-11-30T18:21:26.465Z,99877.20
2023-11-30T18:23:56.925Z,99870.63
2023-11-30T18:26:25.238Z,99870.63
2023-11-30T18:28:53.724Z,99881.66
2023-11-30T18:31:23.007Z,99889.02
2023-11-30T18:33:51.832Z,99887.50
2023-11-30T18:36:20.269Z,99892.88
2023-11-30T18:38:51.393Z,99901.33
2023-11-30T18:41:21.353Z,99894.54
2023-11-30T18:43:50.793Z,99892.06
2023-11-30T18:46:19.542Z,99883.48
2023-11-30T18:48:47.924Z,99882.23
2023-11-30T18:51:16.218Z,99872.93
2023-11-30T18:53:44.471Z,99862.03
2023-11-30T18:56:12.908Z,99857.20
2023-11-30T18:58:41.735Z,99857.55
2023-11-30T19:01:10.136Z,99855.63
2023-11-30T19:03:38.713Z,99850.65
2023-11-30T19:06:07.886Z,99854.79
2023-11-30T19:08:36.232Z,99858.01
2023-11-30T19:11:04.879Z,99849.08
2023-11-30T19:13:33.917Z,99861.95
2023-11-30T19:16:02.490Z,99859.70
2023-11-30T19:18:31.358Z,99862.38
2023-11-30T19:21:02.435Z,99865.27
2023-11-30T19:23:30.948Z,99863.55
2023-11-30T19:25:59.616Z,99866.79
2023-11-30T19:28:27.954Z,99861.05
2023-11-30T19:30:56.263Z,99856.81
2023-11-30T19:33:24.794Z,99856.67
2023-11-30T19:35:53.245Z,99867.94
2023-11-30T19:38:21.622Z,99866.85
2023-11-30T19:40:49.976Z,99857.73
2023-11-30T19:43:18.773Z,99857.38
2023-11-30T19:45:47.286Z,99850.93
2023-11-30T19:48:15.760Z,99856.48
2023-11-30T19:50:44.117Z,99862.16
2023-11-30T19:53:12.339Z,99862.71
2023-11-30T19:55:41.353Z,99852.37
2023-11-30T19:58:09.905Z,99846.55
2023-11-30T20:00:38.138Z,99836.93
2023-11-30T20:03:06.555Z,99835.87
2023-11-30T20:05:35.408Z,99840.71
2023-11-30T20:08:03.699Z,99846.09
2023-11-30T20:10:31.936Z,99855.90
2023-11-30T20:13:00.303Z,99856.45
2023-11-30T20:15:28.496Z,99852.19
2023-11-30T20:17:56.941Z,99854.88
2023-11-30T20:20:25.596Z,99856.32
2023-11-30T20:22:53.861Z,99857.56
2023-11-30T20:25:22.583Z,99857.55
2023-11-30T20:27:51.575Z,99849.00
2023-11-30T20:30:19.821Z,99846.69
2023-11-30T20:32:49.331Z,99842.92
2023-11-30T20:35:18.063Z,99836.48
2023-11-30T20:37:46.480Z,99832.90
2023-11-30T20:40:15.060Z,99827.73
2023-11-30T20:42:43.222Z,99819.33
2023-11-30T20:45:12.249Z,99821.80
2023-11-30T20:47:42.021Z,99821.84
2023-11-30T20:50:10.503Z,99819.20
2023-11-30T20:52:39.176Z,99808.38
2023-11-30T20:55:08.162Z,99804.41
2023-11-30T20:57:36.450Z,99812.36
2023-11-30T21:00:08.202Z,99824.89
2023-11-30T21:02:37.200Z,99837.39
2023-11-30T21:05:06.077Z,99838.46
2023-11-30T21:07:34.395Z,99831.31
2023-11-30T21:10:03.399Z,99824.54
2023-11-30T21:12:31.744Z,99821.34
2023-11-30T21:15:00.509Z,99824.56
2023-11-30T21:17:28.680Z,99822.08
2023-11-30T21:19:57.032Z,99822.27
2023-11-30T21:22:28.682Z,99820.71
2023-11-30T21:24:56.985Z,99821.52
2023-11-30T21:27:25.888Z,99823.34
2023-11-30T21:29:57.380Z,99815.86
2023-11-30T21:32:25.883Z,99811.93
2023-11-30T21:34:57.165Z,99807.28
2023-11-30T21:37:26.000Z,99809.08
2023-11-30T21:39:54.267Z,99806.60
2023-11-30T21:42:22.715Z,99815.16
2023-11-30T21:44:51.492Z,99815.35
2023-11-30T21:47:19.678Z,99815.52
2023-11-30T21:49:48.836Z,99818.45
2023-11-30T21:52:17.399Z,99812.45
2023-11-30T21:54:45.742Z,99808.38
2023-11-30T21:57:14.444Z,99804.85
2023-11-30T21:59:42.790Z,99810.60
2023-11-30T22:02:11.242Z,99814.52
2023-11-30T22:04:39.590Z,99815.23
2023-11-30T22:07:08.102Z,99815.26
2023-11-30T22:09:38.353Z,99813.84
2023-11-30T22:12:08.009Z,99814.39
2023-11-30T22:14:36.150Z,99814.23
2023-11-30T22:17:04.723Z,99816.02
2023-11-30T22:19:33.672Z,99814.05
2023-11-30T22:22:01.925Z,99822.44
2023-11-30T22:24:30.082Z,99820.66
2023-11-30T22:26:58.691Z,99828.71
2023-11-30T22:29:27.222Z,99824.61
2023-11-30T22:31:56.283Z,99822.13
2023-11-30T22:34:25.102Z,99817.14
2023-11-30T22:36:53.789Z,99825.53
2023-11-30T22:39:22.228Z,99832.70
2023-11-30T22:41:50.939Z,99828.29
2023-11-30T22:44:19.680Z,99823.48
2023-11-30T22:46:48.398Z,99822.58
2023-11-30T22:49:17.169Z,99823.33
2023-11-30T22:51:45.742Z,99826.21
2023-11-30T22:54:13.965Z,99826.94
2023-11-30T22:56:42.422Z,99830.70
2023-11-30T22:59:11.337Z,99826.27
2023-11-30T23:01:39.767Z,99820.22
2023-11-30T23:04:08.377Z,99814.86
2023-11-30T23:06:36.846Z,99813.29
2023-11-30T23:09:05.015Z,99814.45
2023-11-30T23:11:33.424Z,99814.35
2023-11-30T23:14:01.713Z,99817.59
2023-11-30T23:16:29.936Z,99816.92
2023-11-30T23:18:58.622Z,99818.57
2023-11-30T23:21:26.882Z,99811.69
2023-11-30T23:23:55.104Z,99814.25
2023-11-30T23:26:23.714Z,99814.29
2023-11-30T23:28:51.989Z,99813.08
2023-11-30T23:31:21.474Z,99818.09
2023-11-30T23:33:49.800Z,99818.80
2023-11-30T23:36:18.229Z,99814.34
2023-11-30T23:38:46.548Z,99805.27
2023-11-30T23:41:15.051Z,99816.33
2023-11-30T23:43:43.258Z,99815.83
2023-11-30T23:46:11.702Z,99811.75
2023-11-30T23:48:40.072Z,99808.37
2023-11-30T23:51:08.623Z,99807.12
2023-11-30T23:53:36.899Z,99809.48
2023-11-30T23:56:05.696Z,99812.38
2023-11-30T23:58:34.034Z,99804.77
